FWKI/LLW METAR and TAF weather

Enter ICAO airport designator
Station Type Date Time Source
FWKI METAR 2019/08/24 16:00 UTC NOAA

FWKI 241600Z 10004KT CAVOK 20/08 Q1024 NOSIG


Station Type Date Time Source
FWKI Decoded METAR 2019/08/24 16:00 UTC NOAA

Station name not available
Aug 24, 2019 - 12:00 PM EDT / 2019.08.24 1600 UTC
Wind: from the E (100 degrees) at 5 MPH (4 KT):0
Visibility: greater than 7 mile(s):0
Temperature: 68 F (20 C)
Dew Point: 46 F (8 C)
Relative Humidity: 45%
Pressure (altimeter): 30.24 in. Hg (1024 hPa)
ob: FWKI 241600Z 10004KT CAVOK 20/08 Q1024 NOSIG
cycle: 16

Station Type Date Time Source
FWKI TAF 2019/08/24 18:39 UTC NOAA

TAF TAF FWKI 241530Z 2418/2524 09008KT CAVOK
BECMG 2506/2508 12006KT 9999 FEW018
BECMG 2507/2509 09010KT SCT025
BECMG 2512/2514 SCT030
FM251500 09010KT CAVOK

Example: see airport list